createdAt,value
2023-02-18T00:00:21.470Z,10.46
2023-02-18T00:02:50.322Z,10.37
2023-02-18T00:05:20.279Z,10.31
2023-02-18T00:07:47.560Z,10.45
2023-02-18T00:10:15.864Z,10.54
2023-02-18T00:12:43.483Z,10.49
2023-02-18T00:15:11.225Z,10.38
2023-02-18T00:17:38.531Z,10.49
2023-02-18T00:20:06.896Z,10.44
2023-02-18T00:22:36.039Z,10.43
2023-02-18T00:25:03.662Z,10.27
2023-02-18T00:27:30.951Z,10.29
2023-02-18T00:29:59.213Z,10.34
2023-02-18T00:32:26.488Z,10.16
2023-02-18T00:34:53.890Z,10.28
2023-02-18T00:37:21.165Z,10.27
2023-02-18T00:39:49.756Z,10.32
2023-02-18T00:42:17.023Z,10.33
2023-02-18T00:44:44.379Z,10.34
2023-02-18T00:47:11.772Z,10.36
2023-02-18T00:49:39.214Z,10.42
2023-02-18T00:52:06.587Z,10.35
2023-02-18T00:54:33.850Z,10.30
2023-02-18T00:57:02.443Z,10.30
2023-02-18T00:59:29.721Z,10.28
2023-02-18T01:01:57.066Z,10.21
2023-02-18T01:04:24.432Z,10.22
2023-02-18T01:06:52.489Z,10.25
2023-02-18T01:09:19.752Z,10.20
2023-02-18T01:11:47.066Z,10.26
2023-02-18T01:14:15.672Z,10.17
2023-02-18T01:16:42.972Z,10.20
2023-02-18T01:19:10.275Z,10.09
2023-02-18T01:21:37.547Z,10.14
2023-02-18T01:24:05.200Z,10.08
2023-02-18T01:26:32.509Z,10.11
2023-02-18T01:28:59.795Z,10.00
2023-02-18T01:31:28.605Z,9.95
2023-02-18T01:33:55.980Z,10.01
2023-02-18T01:36:23.276Z,9.78
2023-02-18T01:38:50.610Z,9.80
2023-02-18T01:41:17.895Z,9.81
2023-02-18T01:43:45.149Z,9.85
2023-02-18T01:46:17.604Z,9.68
2023-02-18T01:48:48.009Z,9.57
2023-02-18T01:51:17.336Z,9.65
2023-02-18T01:53:48.191Z,9.57
2023-02-18T01:56:17.399Z,9.66
2023-02-18T01:58:44.758Z,9.59
2023-02-18T02:01:12.171Z,9.65
2023-02-18T02:03:39.761Z,9.47
2023-02-18T02:06:13.495Z,9.54
2023-02-18T02:08:40.850Z,9.54
2023-02-18T02:11:11.954Z,9.49
2023-02-18T02:13:49.994Z,9.43
2023-02-18T02:16:22.690Z,9.48
2023-02-18T02:18:57.021Z,9.39
2023-02-18T02:21:39.232Z,9.55
2023-02-18T02:24:30.286Z,9.48
2023-02-18T02:27:06.872Z,9.55
2023-02-18T02:29:58.694Z,9.44
2023-02-18T02:32:39.116Z,9.47
2023-02-18T02:35:09.072Z,9.50
2023-02-18T02:37:39.397Z,9.41
2023-02-18T02:40:13.037Z,9.30
2023-02-18T02:42:47.907Z,9.40
2023-02-18T02:45:19.634Z,9.40
2023-02-18T02:47:51.986Z,9.40
2023-02-18T02:50:24.384Z,9.38
2023-02-18T02:52:54.187Z,9.40
2023-02-18T02:55:21.581Z,9.41
2023-02-18T02:57:50.315Z,9.45
2023-02-18T03:00:19.244Z,9.48
2023-02-18T03:03:04.661Z,9.53
2023-02-18T03:05:39.390Z,9.61
2023-02-18T03:08:26.225Z,9.60
2023-02-18T03:10:59.448Z,9.77
2023-02-18T03:13:30.234Z,9.76
2023-02-18T03:15:59.780Z,9.77
2023-02-18T03:18:31.390Z,9.78
2023-02-18T03:21:04.276Z,9.77
2023-02-18T03:23:35.951Z,9.83
2023-02-18T03:26:04.372Z,9.76
2023-02-18T03:28:32.342Z,9.72
2023-02-18T03:31:01.844Z,9.73
2023-02-18T03:33:32.046Z,9.79
2023-02-18T03:36:01.294Z,9.71
2023-02-18T03:38:30.899Z,9.71
2023-02-18T03:40:58.449Z,9.69
2023-02-18T03:43:25.731Z,9.72
2023-02-18T03:45:53.165Z,9.78
2023-02-18T03:48:20.479Z,9.67
2023-02-18T03:50:47.757Z,9.71
2023-02-18T03:53:16.462Z,9.65
2023-02-18T03:55:43.735Z,9.65
2023-02-18T03:58:10.977Z,9.57
2023-02-18T04:00:38.249Z,9.64
2023-02-18T04:03:05.553Z,9.48
2023-02-18T04:05:32.900Z,9.62
2023-02-18T04:08:00.160Z,9.57
2023-02-18T04:10:28.767Z,9.54
2023-02-18T04:12:56.066Z,9.60
2023-02-18T04:15:23.357Z,9.63
2023-02-18T04:17:50.778Z,9.60
2023-02-18T04:20:18.149Z,9.55
2023-02-18T04:22:45.476Z,9.59
2023-02-18T04:25:12.756Z,9.64
2023-02-18T04:27:41.344Z,9.59
2023-02-18T04:30:09.039Z,9.57
2023-02-18T04:32:36.312Z,9.52
2023-02-18T04:35:03.622Z,9.58
2023-02-18T04:37:30.878Z,9.57
2023-02-18T04:39:58.150Z,9.52
2023-02-18T04:42:25.414Z,9.58
2023-02-18T04:44:54.022Z,9.60
2023-02-18T04:47:21.373Z,9.68
2023-02-18T04:49:48.701Z,9.52
2023-02-18T04:52:16.204Z,9.55
2023-02-18T04:54:43.502Z,9.45
2023-02-18T04:57:11.002Z,9.50
2023-02-18T04:59:38.362Z,9.54
2023-02-18T05:02:06.956Z,9.46
2023-02-18T05:04:34.232Z,9.53
2023-02-18T05:07:01.640Z,9.58
2023-02-18T05:09:28.929Z,9.59
2023-02-18T05:11:56.169Z,9.62
2023-02-18T05:14:23.492Z,9.64
2023-02-18T05:16:50.812Z,9.54
2023-02-18T05:19:19.419Z,9.61
2023-02-18T05:21:46.721Z,9.59
2023-02-18T05:24:13.995Z,9.65
2023-02-18T05:26:41.246Z,9.58
2023-02-18T05:29:08.538Z,9.64
2023-02-18T05:31:35.937Z,9.58
2023-02-18T05:34:03.265Z,9.61
2023-02-18T05:36:31.864Z,9.60
2023-02-18T05:38:59.128Z,9.57
2023-02-18T05:41:26.495Z,9.56
2023-02-18T05:44:11.453Z,9.68
2023-02-18T05:46:38.744Z,9.57
2023-02-18T05:49:06.049Z,9.61
2023-02-18T05:51:34.641Z,9.66
2023-02-18T05:54:01.923Z,9.50
2023-02-18T05:56:29.214Z,9.40
2023-02-18T05:58:56.499Z,9.55
2023-02-18T06:01:23.795Z,9.51
2023-02-18T06:03:51.072Z,9.64
2023-02-18T06:06:18.406Z,9.64
2023-02-18T06:08:47.006Z,9.60
2023-02-18T06:11:14.265Z,9.70
2023-02-18T06:13:41.516Z,9.64
2023-02-18T06:16:09.153Z,9.52
2023-02-18T06:18:36.869Z,9.53
2023-02-18T06:21:04.786Z,9.48
2023-02-18T06:23:32.200Z,9.33
2023-02-18T06:26:00.820Z,9.29
2023-02-18T06:28:28.087Z,9.31
2023-02-18T06:30:55.374Z,9.35
2023-02-18T06:33:22.636Z,9.37
2023-02-18T06:35:56.877Z,9.40
2023-02-18T06:38:24.163Z,9.29
2023-02-18T06:40:52.010Z,9.38
2023-02-18T06:43:21.041Z,9.44
2023-02-18T06:45:48.292Z,9.41
2023-02-18T06:48:16.852Z,9.28
2023-02-18T06:50:44.514Z,9.27
2023-02-18T06:53:11.775Z,9.26
2023-02-18T06:55:39.556Z,9.21
2023-02-18T06:58:07.137Z,9.22
2023-02-18T07:00:35.770Z,9.27
2023-02-18T07:03:03.092Z,9.18
2023-02-18T07:05:30.470Z,9.15
2023-02-18T07:07:57.811Z,9.30
2023-02-18T07:10:25.418Z,9.22
2023-02-18T07:12:52.677Z,9.21
2023-02-18T07:15:24.099Z,9.18
2023-02-18T07:17:52.724Z,9.17
2023-02-18T07:20:20.778Z,9.18
2023-02-18T07:22:48.549Z,9.20
2023-02-18T07:25:16.016Z,9.24
2023-02-18T07:27:43.321Z,9.31
2023-02-18T07:30:10.885Z,9.35
2023-02-18T07:32:38.200Z,9.23
2023-02-18T07:35:07.572Z,9.22
2023-02-18T07:37:34.851Z,9.20
2023-02-18T07:40:02.130Z,9.09
2023-02-18T07:42:29.432Z,9.15
2023-02-18T07:44:56.675Z,9.28
2023-02-18T07:47:23.985Z,9.23
2023-02-18T07:49:51.267Z,9.28
2023-02-18T07:52:20.175Z,9.18
2023-02-18T07:54:47.475Z,9.25
2023-02-18T07:57:14.784Z,9.27
2023-02-18T07:59:42.204Z,9.02
2023-02-18T08:02:16.034Z,9.17
2023-02-18T08:04:43.316Z,9.08
2023-02-18T08:07:13.058Z,9.12
2023-02-18T08:09:41.713Z,9.25
2023-02-18T08:12:08.996Z,9.19
2023-02-18T08:14:36.333Z,9.24
2023-02-18T08:17:03.624Z,9.19
2023-02-18T08:19:30.907Z,9.27
2023-02-18T08:22:01.775Z,9.37
2023-02-18T08:24:29.061Z,9.34
2023-02-18T08:27:01.280Z,9.38
2023-02-18T08:29:29.339Z,9.48
2023-02-18T08:31:58.111Z,9.47
2023-02-18T08:34:25.627Z,9.44
2023-02-18T08:36:52.929Z,9.47
2023-02-18T08:39:20.246Z,9.54
2023-02-18T08:41:47.521Z,9.57
2023-02-18T08:44:16.111Z,9.59
2023-02-18T08:46:43.404Z,9.58
2023-02-18T08:49:10.731Z,9.61
2023-02-18T08:51:38.169Z,9.74
2023-02-18T08:54:05.692Z,9.69
2023-02-18T08:56:33.525Z,9.66
2023-02-18T08:59:00.807Z,9.59
2023-02-18T09:01:29.450Z,9.72
2023-02-18T09:03:57.095Z,9.72
2023-02-18T09:06:24.723Z,9.71
2023-02-18T09:08:52.325Z,9.72
2023-02-18T09:11:20.505Z,9.76
2023-02-18T09:13:48.107Z,9.76
2023-02-18T09:16:18.205Z,9.85
2023-02-18T09:18:47.569Z,9.88
2023-02-18T09:21:15.950Z,9.89
2023-02-18T09:23:43.393Z,9.82
2023-02-18T09:26:12.056Z,9.82
2023-02-18T09:28:40.032Z,9.83
2023-02-18T09:31:08.105Z,9.69
2023-02-18T09:33:36.501Z,9.75
2023-02-18T09:36:05.760Z,9.87
2023-02-18T09:38:33.113Z,9.95
2023-02-18T09:41:01.681Z,9.96
2023-02-18T09:43:31.786Z,10.02
2023-02-18T09:46:00.100Z,10.01
2023-02-18T09:48:28.734Z,10.01
2023-02-18T09:50:56.366Z,10.03
2023-02-18T09:53:25.559Z,10.06
2023-02-18T09:55:53.758Z,10.06
2023-02-18T09:58:21.876Z,9.97
2023-02-18T10:00:50.897Z,10.07
2023-02-18T10:03:19.825Z,10.20
2023-02-18T10:05:52.678Z,10.38
2023-02-18T10:08:22.217Z,10.45
2023-02-18T10:10:50.835Z,10.48
2023-02-18T10:13:19.286Z,10.49
2023-02-18T10:15:46.794Z,10.59
2023-02-18T10:18:26.902Z,10.77
2023-02-18T10:20:58.072Z,10.93
2023-02-18T10:23:25.581Z,11.14
2023-02-18T10:25:54.745Z,11.17
2023-02-18T10:28:24.472Z,11.31
2023-02-18T10:30:54.123Z,11.39
2023-02-18T10:33:27.820Z,11.36
2023-02-18T10:35:58.505Z,11.36
2023-02-18T10:38:31.374Z,11.45
2023-02-18T10:41:05.653Z,11.56
2023-02-18T10:43:38.909Z,11.63
2023-02-18T10:46:11.557Z,11.72
2023-02-18T10:48:45.130Z,11.68
2023-02-18T10:51:15.652Z,11.73
2023-02-18T10:53:44.858Z,11.83
2023-02-18T10:56:32.348Z,11.85
2023-02-18T10:59:02.145Z,11.90
2023-02-18T11:01:31.506Z,11.90
2023-02-18T11:04:05.893Z,11.85
2023-02-18T11:06:34.914Z,11.98
2023-02-18T11:09:03.014Z,12.00
2023-02-18T11:11:32.989Z,12.08
2023-02-18T11:14:01.398Z,12.13
2023-02-18T11:16:37.840Z,12.27
2023-02-18T11:19:05.257Z,12.31
2023-02-18T11:21:34.383Z,12.26
2023-02-18T11:24:08.282Z,12.39
2023-02-18T11:26:37.803Z,12.43
2023-02-18T11:29:08.245Z,12.51
2023-02-18T11:31:41.279Z,12.47
2023-02-18T11:34:15.404Z,12.65
2023-02-18T11:36:43.012Z,12.67
2023-02-18T11:39:18.244Z,12.72
2023-02-18T11:41:48.597Z,12.84
2023-02-18T11:44:20.630Z,12.91
2023-02-18T11:46:57.332Z,12.96
2023-02-18T11:49:25.912Z,13.01
2023-02-18T11:51:53.647Z,13.08
2023-02-18T11:54:24.806Z,12.91
2023-02-18T11:56:57.162Z,13.03
2023-02-18T11:59:25.133Z,13.11
2023-02-18T12:01:55.346Z,13.02
2023-02-18T12:04:25.588Z,13.02
2023-02-18T12:06:55.162Z,12.98
2023-02-18T12:09:25.941Z,12.88
2023-02-18T12:11:54.849Z,12.86
2023-02-18T12:14:24.770Z,12.79
2023-02-18T12:17:08.542Z,12.60
2023-02-18T12:19:44.571Z,12.58
2023-02-18T12:22:15.742Z,12.64
2023-02-18T12:24:50.026Z,12.66
2023-02-18T12:27:21.639Z,12.58
2023-02-18T12:29:56.309Z,12.57
2023-02-18T12:32:29.488Z,12.48
2023-02-18T12:35:01.209Z,12.47
2023-02-18T12:37:47.603Z,12.57
2023-02-18T12:40:28.483Z,12.60
2023-02-18T12:42:59.228Z,12.68
2023-02-18T12:45:39.756Z,12.78
2023-02-18T12:48:17.368Z,12.60
2023-02-18T12:50:49.380Z,12.56
2023-02-18T12:53:30.853Z,12.44
2023-02-18T12:56:08.385Z,12.25
2023-02-18T12:58:40.207Z,12.12
2023-02-18T13:01:19.447Z,12.05
2023-02-18T13:04:04.910Z,12.21
2023-02-18T13:06:43.304Z,12.39
2023-02-18T13:09:17.205Z,12.37
2023-02-18T13:11:49.329Z,12.39
2023-02-18T13:14:19.645Z,12.27
2023-02-18T13:16:52.132Z,12.33
2023-02-18T13:19:22.316Z,12.28
2023-02-18T13:21:50.593Z,12.24
2023-02-18T13:24:23.972Z,12.14
2023-02-18T13:26:53.791Z,12.33
2023-02-18T13:29:24.895Z,12.40
2023-02-18T13:32:00.490Z,12.52
2023-02-18T13:34:30.060Z,12.42
2023-02-18T13:37:06.647Z,12.21
2023-02-18T13:39:34.082Z,12.15
2023-02-18T13:42:12.499Z,12.22
2023-02-18T13:44:58.614Z,12.01
2023-02-18T13:47:40.695Z,11.84
2023-02-18T13:50:25.550Z,11.63
2023-02-18T13:52:58.837Z,11.71
2023-02-18T13:55:28.254Z,11.63
2023-02-18T13:57:59.429Z,11.82
2023-02-18T14:00:35.155Z,11.76
2023-02-18T14:03:19.756Z,11.73
2023-02-18T14:05:47.052Z,11.74
2023-02-18T14:08:15.298Z,11.78
2023-02-18T14:10:43.073Z,11.84
2023-02-18T14:13:24.666Z,11.79
2023-02-18T14:15:54.595Z,11.79
2023-02-18T14:18:28.085Z,11.85
2023-02-18T14:21:06.751Z,11.83
2023-02-18T14:23:44.506Z,11.79
2023-02-18T14:26:19.264Z,11.78
2023-02-18T14:28:51.261Z,11.76
2023-02-18T14:31:29.907Z,11.77
2023-02-18T14:34:10.815Z,11.81
2023-02-18T14:36:40.691Z,11.67
2023-02-18T14:39:12.158Z,11.61
2023-02-18T14:41:44.189Z,11.73
2023-02-18T14:44:29.478Z,11.73
2023-02-18T14:47:06.746Z,11.64
2023-02-18T14:49:40.356Z,11.65
2023-02-18T14:52:12.465Z,11.67
2023-02-18T14:54:41.111Z,11.71
2023-02-18T14:57:10.479Z,11.70
2023-02-18T14:59:40.947Z,11.69
2023-02-18T15:02:15.893Z,11.63
2023-02-18T15:04:45.908Z,11.57
2023-02-18T15:07:13.586Z,11.39
2023-02-18T15:09:46.293Z,11.45
2023-02-18T15:12:15.438Z,11.17
2023-02-18T15:14:44.059Z,11.10
2023-02-18T15:17:18.597Z,11.05
2023-02-18T15:19:50.009Z,10.90
2023-02-18T15:22:19.061Z,10.86
2023-02-18T15:24:46.826Z,10.87
2023-02-18T15:27:15.615Z,10.91
2023-02-18T15:29:43.499Z,10.84
2023-02-18T15:32:16.560Z,10.88
2023-02-18T15:34:48.940Z,10.99
2023-02-18T15:37:18.035Z,11.06
2023-02-18T15:39:49.604Z,11.09
2023-02-18T15:42:20.340Z,11.32
2023-02-18T15:44:49.080Z,11.43
2023-02-18T15:47:17.445Z,11.48
2023-02-18T15:49:47.394Z,11.62
2023-02-18T15:52:14.889Z,11.59
2023-02-18T15:54:43.624Z,11.66
2023-02-18T15:57:14.074Z,11.65
2023-02-18T15:59:44.677Z,11.65
2023-02-18T16:02:15.911Z,11.76
2023-02-18T16:04:46.278Z,11.67
2023-02-18T16:07:24.838Z,11.74
2023-02-18T16:09:58.543Z,11.79
2023-02-18T16:12:29.221Z,11.72
2023-02-18T16:14:57.494Z,11.73
2023-02-18T16:17:26.281Z,11.74
2023-02-18T16:20:04.393Z,11.70
2023-02-18T16:22:34.584Z,11.66
2023-02-18T16:25:08.331Z,11.76
2023-02-18T16:27:37.235Z,11.67
2023-02-18T16:30:08.040Z,11.66
2023-02-18T16:32:35.445Z,11.72
2023-02-18T16:35:03.532Z,11.76
2023-02-18T16:37:40.084Z,11.63
2023-02-18T16:40:28.217Z,11.70
2023-02-18T16:42:57.750Z,11.77
2023-02-18T16:45:31.553Z,11.75
2023-02-18T16:47:58.825Z,11.66
2023-02-18T16:50:28.667Z,11.64
2023-02-18T16:52:56.256Z,11.73
2023-02-18T16:55:25.495Z,11.70
2023-02-18T16:57:52.771Z,11.73
2023-02-18T17:00:22.395Z,11.62
2023-02-18T17:02:50.912Z,11.69
2023-02-18T17:05:26.354Z,11.71
2023-02-18T17:07:54.631Z,11.67
2023-02-18T17:10:22.284Z,11.75
2023-02-18T17:12:49.560Z,11.75
2023-02-18T17:15:24.666Z,11.69
2023-02-18T17:17:51.983Z,11.78
2023-02-18T17:20:19.428Z,11.73
2023-02-18T17:22:46.744Z,11.72
2023-02-18T17:25:18.365Z,11.65
2023-02-18T17:27:47.939Z,11.58
2023-02-18T17:30:15.794Z,11.60
2023-02-18T17:32:44.985Z,11.49
2023-02-18T17:35:16.254Z,11.33
2023-02-18T17:37:43.558Z,11.28
2023-02-18T17:40:14.187Z,11.29
2023-02-18T17:42:41.454Z,11.25
2023-02-18T17:45:16.697Z,11.23
2023-02-18T17:47:46.173Z,11.08
2023-02-18T17:50:13.498Z,11.10
2023-02-18T17:52:40.798Z,11.10
2023-02-18T17:55:19.216Z,11.12
2023-02-18T17:57:46.828Z,11.24
2023-02-18T18:00:15.619Z,11.24
2023-02-18T18:02:43.066Z,11.18
2023-02-18T18:05:16.969Z,11.30
2023-02-18T18:07:44.247Z,11.22
2023-02-18T18:10:11.824Z,11.27
2023-02-18T18:12:39.253Z,11.32
2023-02-18T18:15:18.928Z,11.29
2023-02-18T18:17:46.403Z,11.38
2023-02-18T18:20:13.842Z,11.38
2023-02-18T18:22:42.492Z,11.54
2023-02-18T18:25:16.886Z,11.54
2023-02-18T18:27:47.563Z,11.55
2023-02-18T18:30:15.078Z,11.59
2023-02-18T18:32:42.384Z,11.65
2023-02-18T18:35:24.325Z,11.57
2023-02-18T18:37:53.311Z,11.62
2023-02-18T18:40:21.244Z,11.60
2023-02-18T18:42:48.851Z,11.53
2023-02-18T18:45:17.841Z,11.47
2023-02-18T18:47:45.196Z,11.19
2023-02-18T18:50:12.947Z,11.14
2023-02-18T18:52:43.406Z,11.14
2023-02-18T18:55:18.974Z,10.92
2023-02-18T18:57:47.262Z,10.96
2023-02-18T19:00:15.187Z,10.83
2023-02-18T19:02:42.552Z,10.82
2023-02-18T19:05:15.808Z,10.93
2023-02-18T19:07:43.093Z,10.91
2023-02-18T19:10:10.445Z,10.86
2023-02-18T19:12:39.101Z,11.02
2023-02-18T19:15:06.611Z,11.12
2023-02-18T19:17:33.930Z,11.10
2023-02-18T19:20:01.226Z,11.15
2023-02-18T19:22:28.522Z,11.20
2023-02-18T19:24:55.814Z,11.18
2023-02-18T19:27:23.121Z,11.18
2023-02-18T19:29:54.212Z,11.32
2023-02-18T19:32:24.515Z,11.28
2023-02-18T19:34:52.160Z,11.28
2023-02-18T19:37:19.524Z,11.34
2023-02-18T19:39:46.929Z,11.32
2023-02-18T19:42:14.582Z,11.18
2023-02-18T19:44:42.007Z,11.27
2023-02-18T19:47:10.898Z,11.34
2023-02-18T19:49:38.318Z,11.17
2023-02-18T19:52:05.730Z,11.08
2023-02-18T19:54:33.414Z,10.96
2023-02-18T19:57:01.029Z,10.94
2023-02-18T19:59:30.498Z,10.95
2023-02-18T20:01:57.879Z,10.86
2023-02-18T20:04:26.640Z,10.90
2023-02-18T20:06:53.934Z,10.89
2023-02-18T20:12:12.319Z,10.87
2023-02-18T20:14:40.039Z,10.85
2023-02-18T20:17:07.665Z,10.90
2023-02-18T20:19:36.342Z,10.81
2023-02-18T20:22:03.977Z,10.84
2023-02-18T20:24:32.131Z,10.78
2023-02-18T20:27:02.513Z,10.71
2023-02-18T20:29:33.531Z,10.73
2023-02-18T20:32:01.547Z,10.84
2023-02-18T20:34:29.057Z,10.84
2023-02-18T20:36:58.015Z,10.82
2023-02-18T20:39:25.342Z,10.78
2023-02-18T20:41:52.733Z,10.89
2023-02-18T20:44:20.876Z,10.97
2023-02-18T20:46:49.469Z,10.84
2023-02-18T20:49:18.903Z,10.92
2023-02-18T20:51:46.269Z,10.89
2023-02-18T20:54:15.910Z,10.87
2023-02-18T20:56:43.722Z,10.93
2023-02-18T20:59:14.419Z,10.94
2023-02-18T21:01:41.821Z,10.83
2023-02-18T21:04:10.924Z,10.87
2023-02-18T21:06:38.250Z,10.76
2023-02-18T21:09:05.660Z,10.83
2023-02-18T21:11:37.501Z,10.70
2023-02-18T21:14:05.368Z,10.62
2023-02-18T21:16:34.512Z,10.59
2023-02-18T21:19:01.838Z,10.69
2023-02-18T21:21:29.126Z,10.66
2023-02-18T21:23:56.461Z,10.71
2023-02-18T21:26:25.181Z,10.79
2023-02-18T21:28:54.650Z,10.77
2023-02-18T21:31:23.438Z,10.85
2023-02-18T21:33:50.830Z,10.81
2023-02-18T21:36:21.750Z,10.86
2023-02-18T21:38:51.870Z,10.89
2023-02-18T21:41:19.266Z,10.95
2023-02-18T21:43:47.156Z,10.96
2023-02-18T21:46:18.072Z,10.84
2023-02-18T21:49:05.679Z,10.84
2023-02-18T21:51:52.488Z,10.83
2023-02-18T21:54:20.665Z,10.71
2023-02-18T21:56:48.527Z,10.73
2023-02-18T21:59:19.482Z,10.68
2023-02-18T22:01:48.262Z,10.67
2023-02-18T22:04:15.886Z,10.65
2023-02-18T22:06:43.364Z,10.55
2023-02-18T22:09:10.880Z,10.55
2023-02-18T22:11:38.191Z,10.61
2023-02-18T22:14:05.540Z,10.64
2023-02-18T22:16:32.859Z,10.60
2023-02-18T22:19:01.505Z,10.69
2023-02-18T22:21:28.837Z,10.66
2023-02-18T22:23:56.170Z,10.68
2023-02-18T22:26:23.509Z,10.70
2023-02-18T22:28:54.509Z,10.62
2023-02-18T22:31:22.369Z,10.70
2023-02-18T22:33:51.430Z,10.70
2023-02-18T22:36:20.823Z,10.69
2023-02-18T22:38:48.529Z,10.83
2023-02-18T22:41:16.619Z,10.76
2023-02-18T22:43:44.057Z,10.82
2023-02-18T22:46:13.076Z,10.87
2023-02-18T22:48:40.617Z,10.79
2023-02-18T22:51:09.058Z,10.65
2023-02-18T22:53:38.506Z,10.59
2023-02-18T22:56:06.835Z,10.58
2023-02-18T22:58:34.473Z,10.50
2023-02-18T23:01:01.854Z,10.50
2023-02-18T23:03:29.735Z,10.51
2023-02-18T23:06:01.862Z,10.45
2023-02-18T23:08:29.466Z,10.44
2023-02-18T23:11:04.646Z,10.53
2023-02-18T23:13:31.944Z,10.49
2023-02-18T23:16:00.139Z,10.46
2023-02-18T23:18:28.104Z,10.44
2023-02-18T23:21:18.734Z,10.52
2023-02-18T23:23:46.859Z,10.53
2023-02-18T23:26:15.690Z,10.46
2023-02-18T23:28:49.096Z,10.34
2023-02-18T23:31:17.160Z,10.41
2023-02-18T23:33:44.929Z,10.44
2023-02-18T23:36:13.013Z,10.59
2023-02-18T23:38:40.355Z,10.60
2023-02-18T23:41:08.607Z,10.58
2023-02-18T23:43:37.414Z,10.51
2023-02-18T23:46:04.787Z,10.62
2023-02-18T23:48:32.109Z,10.65
2023-02-18T23:51:00.112Z,10.64
2023-02-18T23:53:27.783Z,10.69
2023-02-18T23:56:02.737Z,10.72
2023-02-18T23:58:30.055Z,10.64
